createdAt,value
2023-04-17T00:00:35.319Z,21.67
2023-04-17T00:03:02.472Z,23.43
2023-04-17T00:05:35.406Z,21.90
2023-04-17T00:08:12.730Z,22.17
2023-04-17T00:10:39.722Z,22.03
2023-04-17T00:13:08.717Z,21.23
2023-04-17T00:15:35.637Z,20.70
2023-04-17T00:18:11.027Z,22.93
2023-04-17T00:20:37.939Z,19.57
2023-04-17T00:23:04.899Z,22.37
2023-04-17T00:25:37.518Z,24.80
2023-04-17T00:28:06.595Z,21.67
2023-04-17T00:30:33.468Z,20.60
2023-04-17T00:33:03.641Z,22.87
2023-04-17T00:35:30.514Z,20.77
2023-04-17T00:37:59.392Z,21.17
2023-04-17T00:40:26.445Z,25.63
2023-04-17T00:42:56.168Z,23.07
2023-04-17T00:45:23.430Z,24.50
2023-04-17T00:47:51.683Z,22.20
2023-04-17T00:50:19.530Z,22.50
2023-04-17T00:53:01.163Z,21.70
2023-04-17T00:55:39.531Z,23.23
2023-04-17T00:58:06.461Z,22.97
2023-04-17T01:00:39.119Z,20.43
2023-04-17T01:03:07.234Z,22.07
2023-04-17T01:05:38.311Z,21.13
2023-04-17T01:08:07.483Z,25.87
2023-04-17T01:10:34.349Z,21.63
2023-04-17T01:13:06.170Z,20.83
2023-04-17T01:15:34.481Z,21.37
2023-04-17T01:18:04.788Z,24.40
2023-04-17T01:20:33.004Z,21.60
2023-04-17T01:23:02.527Z,19.67
2023-04-17T01:25:31.552Z,20.50
2023-04-17T01:27:58.460Z,20.87
2023-04-17T01:30:32.491Z,20.37
2023-04-17T01:33:02.637Z,19.77
2023-04-17T01:35:30.696Z,21.10
2023-04-17T01:38:04.553Z,24.43
2023-04-17T01:40:31.411Z,22.43
2023-04-17T01:43:01.037Z,21.63
2023-04-17T01:45:27.893Z,21.87
2023-04-17T01:47:54.790Z,20.10
2023-04-17T01:50:27.819Z,23.30
2023-04-17T01:53:00.875Z,19.10
2023-04-17T01:55:27.810Z,20.43
2023-04-17T01:57:58.101Z,18.07
2023-04-17T02:00:30.901Z,19.73
2023-04-17T02:02:58.899Z,19.93
2023-04-17T02:05:32.075Z,21.27
2023-04-17T02:08:01.155Z,23.30
2023-04-17T02:10:27.905Z,20.77
2023-04-17T02:12:54.831Z,21.43
2023-04-17T02:15:21.666Z,18.37
2023-04-17T02:17:51.732Z,20.23
2023-04-17T02:20:18.692Z,22.33
2023-04-17T02:22:45.704Z,21.27
2023-04-17T02:25:13.818Z,17.50
2023-04-17T02:27:40.667Z,19.27
2023-04-17T02:30:13.673Z,19.93
2023-04-17T02:32:42.777Z,19.80
2023-04-17T02:35:09.829Z,20.67
2023-04-17T02:37:39.829Z,22.50
2023-04-17T02:40:12.985Z,23.03
2023-04-17T02:42:42.013Z,20.80
2023-04-17T02:45:10.097Z,19.87
2023-04-17T02:47:44.837Z,22.10
2023-04-17T02:50:19.078Z,17.37
2023-04-17T02:52:49.000Z,23.03
2023-04-17T02:55:15.896Z,20.33
2023-04-17T02:57:43.906Z,18.60
2023-04-17T03:00:15.182Z,21.80
2023-04-17T03:02:42.315Z,20.47
2023-04-17T03:05:11.722Z,21.33
2023-04-17T03:07:40.875Z,20.57
2023-04-17T03:10:09.527Z,20.80
2023-04-17T03:12:40.570Z,19.80
2023-04-17T03:15:08.964Z,21.30
2023-04-17T03:17:36.241Z,18.93
2023-04-17T03:20:07.733Z,19.70
2023-04-17T03:22:36.608Z,19.63
2023-04-17T03:25:11.188Z,21.53
2023-04-17T03:27:44.647Z,20.53
2023-04-17T03:30:20.972Z,19.73
2023-04-17T03:32:48.856Z,19.60
2023-04-17T03:35:15.862Z,21.83
2023-04-17T03:37:43.967Z,21.70
2023-04-17T03:40:14.102Z,19.80
2023-04-17T03:42:46.836Z,21.43
2023-04-17T03:45:19.565Z,21.03
2023-04-17T03:47:47.784Z,19.97
2023-04-17T03:50:14.904Z,19.37
2023-04-17T03:52:41.779Z,20.00
2023-04-17T03:55:09.383Z,21.53
2023-04-17T03:57:37.257Z,17.97
2023-04-17T04:00:10.658Z,19.60
2023-04-17T04:02:49.757Z,19.10
2023-04-17T04:05:16.951Z,17.43
2023-04-17T04:07:43.953Z,21.80
2023-04-17T04:10:11.305Z,20.83
2023-04-17T04:12:38.319Z,18.73
2023-04-17T04:15:08.927Z,20.50
2023-04-17T04:17:39.005Z,19.20
2023-04-17T04:20:08.815Z,19.20
2023-04-17T04:22:36.186Z,22.70
2023-04-17T04:25:03.036Z,20.93
2023-04-17T04:27:32.924Z,19.17
2023-04-17T04:30:01.976Z,21.93
2023-04-17T04:32:28.851Z,20.03
2023-04-17T04:35:01.572Z,19.47
2023-04-17T04:37:36.041Z,20.53
2023-04-17T04:40:10.949Z,21.90
2023-04-17T04:42:39.695Z,22.37
2023-04-17T04:45:07.382Z,23.73
2023-04-17T04:47:34.638Z,20.20
2023-04-17T04:50:03.783Z,20.43
2023-04-17T04:52:30.564Z,20.97
2023-04-17T04:54:57.270Z,22.77
2023-04-17T04:57:29.051Z,23.97
2023-04-17T04:59:56.824Z,21.77
2023-04-17T05:02:26.860Z,23.53
2023-04-17T05:04:53.777Z,22.13
2023-04-17T05:07:27.253Z,22.17
2023-04-17T05:09:55.572Z,23.83
2023-04-17T05:12:22.490Z,26.73
2023-04-17T05:14:50.484Z,24.50
2023-04-17T05:17:18.241Z,21.17
2023-04-17T05:19:45.986Z,23.37
2023-04-17T05:22:12.930Z,23.87
2023-04-17T05:24:39.703Z,23.27
2023-04-17T05:27:06.542Z,22.93
2023-04-17T05:29:33.481Z,22.20
2023-04-17T05:32:01.352Z,22.10
2023-04-17T05:34:29.444Z,21.43
2023-04-17T05:36:56.576Z,20.77
2023-04-17T05:39:23.411Z,21.93
2023-04-17T05:41:51.173Z,23.57
2023-04-17T05:44:18.019Z,22.10
2023-04-17T05:46:45.989Z,25.13
2023-04-17T05:49:13.943Z,22.80
2023-04-17T05:51:41.924Z,24.20
2023-04-17T05:54:08.783Z,23.70
2023-04-17T05:56:35.735Z,26.37
2023-04-17T05:59:02.517Z,27.33
2023-04-17T06:01:29.993Z,22.87
2023-04-17T06:03:57.120Z,24.50
2023-04-17T06:06:24.234Z,24.70
2023-04-17T06:08:52.497Z,27.83
2023-04-17T06:11:19.241Z,21.53
2023-04-17T06:13:46.005Z,22.33
2023-04-17T06:16:13.224Z,21.43
2023-04-17T06:18:41.538Z,24.77
2023-04-17T06:21:08.601Z,21.80
2023-04-17T06:23:35.367Z,23.00
2023-04-17T06:26:02.891Z,22.93
2023-04-17T06:28:29.674Z,28.60
2023-04-17T06:30:56.509Z,23.20
2023-04-17T06:33:26.060Z,22.33
2023-04-17T06:35:53.452Z,21.50
2023-04-17T06:38:20.337Z,20.53
2023-04-17T06:40:47.739Z,26.97
2023-04-17T06:43:17.367Z,21.90
2023-04-17T06:45:44.138Z,22.40
2023-04-17T06:48:10.984Z,19.67
2023-04-17T06:50:37.779Z,22.27
2023-04-17T06:53:04.648Z,18.37
2023-04-17T06:55:31.376Z,22.90
2023-04-17T06:57:58.111Z,20.83
2023-04-17T07:00:24.994Z,25.07
2023-04-17T07:02:51.749Z,22.20
2023-04-17T07:05:18.547Z,18.90
2023-04-17T07:07:45.345Z,20.53
2023-04-17T07:10:12.434Z,25.30
2023-04-17T07:12:39.141Z,21.87
2023-04-17T07:15:06.520Z,22.20
2023-04-17T07:17:33.298Z,21.00
2023-04-17T07:20:00.046Z,22.27
2023-04-17T07:22:27.459Z,21.07
2023-04-17T07:24:54.286Z,22.00
2023-04-17T07:27:21.706Z,24.17
2023-04-17T07:29:54.375Z,24.53
2023-04-17T07:32:24.192Z,22.47
2023-04-17T07:34:51.031Z,20.00
2023-04-17T07:37:17.743Z,22.43
2023-04-17T07:39:45.101Z,24.53
2023-04-17T07:42:11.931Z,25.57
2023-04-17T07:44:39.160Z,23.20
2023-04-17T07:47:05.999Z,25.37
2023-04-17T07:49:32.906Z,26.93
2023-04-17T07:51:59.920Z,21.07
2023-04-17T07:54:27.200Z,20.57
2023-04-17T07:56:58.377Z,23.37
2023-04-17T07:59:25.198Z,24.30
2023-04-17T08:01:52.653Z,21.77
2023-04-17T08:04:19.793Z,23.80
2023-04-17T08:06:46.705Z,21.23
2023-04-17T08:09:13.793Z,19.53
2023-04-17T08:11:55.707Z,23.27
2023-04-17T08:14:24.236Z,18.87
2023-04-17T08:16:51.494Z,19.42
2023-04-17T08:19:18.333Z,17.58
2023-04-17T08:21:49.921Z,19.85
2023-04-17T08:24:19.734Z,18.85
2023-04-17T08:26:47.805Z,18.30
2023-04-17T08:29:14.939Z,16.67
2023-04-17T08:31:41.984Z,19.80
2023-04-17T08:34:14.224Z,19.08
2023-04-17T08:36:41.523Z,23.92
2023-04-17T08:39:10.050Z,18.83
2023-04-17T08:41:49.050Z,21.73
2023-04-17T08:44:24.298Z,19.02
2023-04-17T08:46:52.801Z,21.27
2023-04-17T08:49:19.530Z,18.63
2023-04-17T08:51:47.255Z,21.52
2023-04-17T08:54:14.093Z,19.13
2023-04-17T08:56:40.816Z,18.40
2023-04-17T08:59:07.626Z,20.08
2023-04-17T09:01:34.977Z,21.25
2023-04-17T09:04:02.090Z,19.10
2023-04-17T09:06:29.698Z,22.15
2023-04-17T09:09:01.747Z,20.27
2023-04-17T09:11:28.785Z,19.00
2023-04-17T09:13:55.709Z,20.13
2023-04-17T09:16:24.746Z,22.88
2023-04-17T09:18:51.536Z,19.85
2023-04-17T09:21:18.982Z,20.23
2023-04-17T09:23:55.311Z,20.92
2023-04-17T09:26:24.250Z,19.73
2023-04-17T09:29:00.373Z,18.55
2023-04-17T09:31:30.333Z,17.95
2023-04-17T09:34:07.791Z,21.67
2023-04-17T09:36:39.479Z,22.10
2023-04-17T09:39:16.570Z,22.35
2023-04-17T09:41:43.368Z,20.52
2023-04-17T09:44:12.520Z,19.60
2023-04-17T09:46:42.864Z,21.25
2023-04-17T09:49:33.762Z,16.70
2023-04-17T09:52:01.069Z,18.02
2023-04-17T09:54:31.498Z,21.92
2023-04-17T09:57:03.853Z,19.92
2023-04-17T09:59:32.029Z,18.83
2023-04-17T10:02:01.645Z,20.85
2023-04-17T10:04:29.410Z,20.60
2023-04-17T10:06:59.349Z,19.33
2023-04-17T10:09:26.569Z,18.10
2023-04-17T10:11:54.142Z,16.75
2023-04-17T10:14:30.021Z,19.08
2023-04-17T10:16:57.214Z,17.75
2023-04-17T10:19:32.690Z,20.23
2023-04-17T10:22:20.345Z,21.10
2023-04-17T10:24:49.379Z,15.95
2023-04-17T10:27:25.853Z,17.90
2023-04-17T10:30:01.622Z,18.23
2023-04-17T10:32:30.690Z,21.67
2023-04-17T10:35:02.248Z,20.95
2023-04-17T10:37:47.423Z,18.63
2023-04-17T10:40:22.161Z,17.92
2023-04-17T10:43:23.288Z,17.77
2023-04-17T10:45:56.871Z,26.33
2023-04-17T10:48:39.254Z,18.92
2023-04-17T10:51:25.018Z,17.90
2023-04-17T10:53:55.903Z,15.93
2023-04-17T10:56:38.491Z,14.18
2023-04-17T10:59:07.376Z,14.57
2023-04-17T11:01:49.432Z,15.88
2023-04-17T11:04:33.903Z,16.00
2023-04-17T11:07:01.182Z,18.73
2023-04-17T11:09:29.563Z,15.75
2023-04-17T11:12:01.900Z,25.42
2023-04-17T11:14:30.384Z,15.35
2023-04-17T11:16:57.425Z,14.18
2023-04-17T11:19:25.720Z,16.05
2023-04-17T11:21:54.716Z,18.60
2023-04-17T11:24:28.503Z,14.60
2023-04-17T11:26:56.655Z,16.35
2023-04-17T11:29:25.259Z,15.88
2023-04-17T11:31:54.389Z,16.42
2023-04-17T11:34:21.303Z,17.48
2023-04-17T11:36:52.489Z,14.48
2023-04-17T11:39:20.447Z,16.20
2023-04-17T11:41:47.438Z,15.60
2023-04-17T11:44:15.232Z,15.68
2023-04-17T11:46:42.060Z,14.00
2023-04-17T11:49:10.362Z,17.23
2023-04-17T11:51:37.283Z,16.98
2023-04-17T11:54:04.153Z,17.45
2023-04-17T11:56:31.120Z,14.25
2023-04-17T11:58:59.405Z,13.45
2023-04-17T12:01:28.453Z,14.57
2023-04-17T12:03:59.594Z,15.40
2023-04-17T12:06:37.007Z,13.05
2023-04-17T12:09:03.805Z,17.00
2023-04-17T12:11:34.875Z,13.60
2023-04-17T12:14:03.791Z,16.48
2023-04-17T12:16:30.670Z,13.48
2023-04-17T12:18:57.710Z,12.68
2023-04-17T12:21:24.498Z,15.85
2023-04-17T12:23:51.667Z,13.48
2023-04-17T12:26:18.562Z,13.63
2023-04-17T12:28:45.485Z,13.20
2023-04-17T12:31:12.784Z,14.02
2023-04-17T12:33:39.612Z,12.48
2023-04-17T12:36:06.938Z,12.15
2023-04-17T12:38:34.025Z,13.48
2023-04-17T12:41:00.890Z,12.60
2023-04-17T12:43:27.666Z,11.93
2023-04-17T12:45:54.431Z,12.68
2023-04-17T12:48:22.195Z,16.70
2023-04-17T12:50:48.970Z,13.77
2023-04-17T12:53:16.145Z,14.57
2023-04-17T12:55:44.337Z,10.68
2023-04-17T12:58:13.006Z,11.02
2023-04-17T13:00:43.964Z,13.95
2023-04-17T13:03:12.132Z,10.23
2023-04-17T13:05:39.539Z,9.77
2023-04-17T13:08:06.432Z,13.52
2023-04-17T13:10:34.324Z,13.02
2023-04-17T13:13:02.329Z,10.50
2023-04-17T13:15:29.121Z,10.27
2023-04-17T13:17:56.870Z,8.48
2023-04-17T13:20:23.726Z,11.93
2023-04-17T13:22:50.538Z,11.95
2023-04-17T13:25:17.392Z,9.70
2023-04-17T13:27:44.143Z,9.93
2023-04-17T13:30:11.746Z,11.90
2023-04-17T13:32:40.388Z,10.07
2023-04-17T13:35:09.651Z,8.50
2023-04-17T13:37:36.414Z,12.75
2023-04-17T13:40:06.301Z,10.13
2023-04-17T13:42:33.170Z,11.15
2023-04-17T13:45:01.012Z,11.27
2023-04-17T13:47:27.776Z,10.13
2023-04-17T13:49:54.642Z,10.43
2023-04-17T13:52:21.516Z,9.85
2023-04-17T13:54:48.620Z,9.43
2023-04-17T13:57:18.396Z,9.82
2023-04-17T13:59:45.396Z,10.00
2023-04-17T14:02:13.199Z,8.90
2023-04-17T14:04:40.104Z,10.65
2023-04-17T14:07:07.074Z,10.43
2023-04-17T14:09:33.821Z,18.75
2023-04-17T14:12:01.573Z,10.73
2023-04-17T14:14:28.308Z,7.97
2023-04-17T14:16:56.767Z,8.45
2023-04-17T14:19:24.159Z,6.78
2023-04-17T14:21:50.878Z,9.88
2023-04-17T14:24:17.743Z,7.03
2023-04-17T14:26:44.746Z,8.77
2023-04-17T14:29:13.989Z,7.40
2023-04-17T14:31:41.291Z,7.63
2023-04-17T14:34:08.092Z,8.27
2023-04-17T14:36:35.827Z,8.35
2023-04-17T14:39:02.865Z,9.98
2023-04-17T14:41:31.681Z,8.77
2023-04-17T14:43:58.405Z,6.10
2023-04-17T14:46:25.518Z,8.57
2023-04-17T14:48:55.942Z,6.70
2023-04-17T14:51:24.430Z,7.63
2023-04-17T14:53:53.188Z,8.45
2023-04-17T14:56:21.738Z,6.78
2023-04-17T14:58:48.885Z,6.97
2023-04-17T15:01:15.724Z,6.75
2023-04-17T15:03:46.741Z,6.60
2023-04-17T15:06:15.680Z,11.23
2023-04-17T15:08:42.681Z,8.45
2023-04-17T15:11:09.436Z,8.13
2023-04-17T15:13:36.170Z,8.80
2023-04-17T15:16:03.436Z,6.65
2023-04-17T15:18:30.634Z,7.85
2023-04-17T15:20:57.861Z,7.03
2023-04-17T15:23:26.549Z,9.93
2023-04-17T15:25:57.521Z,10.02
2023-04-17T15:28:25.420Z,9.48
2023-04-17T15:30:52.265Z,8.63
2023-04-17T15:33:19.708Z,9.27
2023-04-17T15:35:46.485Z,6.15
2023-04-17T15:38:13.443Z,10.27
2023-04-17T15:40:40.229Z,8.80
2023-04-17T15:43:07.043Z,12.07
2023-04-17T15:45:33.756Z,9.48
2023-04-17T15:48:01.808Z,8.07
2023-04-17T15:50:28.855Z,6.88
2023-04-17T15:52:55.564Z,9.90
2023-04-17T15:55:22.306Z,6.78
2023-04-17T15:57:49.012Z,7.70
2023-04-17T16:00:16.735Z,10.02
2023-04-17T16:02:47.470Z,8.27
2023-04-17T16:05:15.956Z,10.05
2023-04-17T16:07:42.835Z,6.85
2023-04-17T16:10:13.916Z,9.00
2023-04-17T16:12:47.608Z,8.82
2023-04-17T16:15:17.334Z,8.70
2023-04-17T16:17:45.455Z,8.52
2023-04-17T16:20:12.686Z,8.20
2023-04-17T16:22:39.414Z,6.72
2023-04-17T16:25:06.742Z,9.30
2023-04-17T16:27:33.703Z,8.45
2023-04-17T16:30:02.959Z,9.85
2023-04-17T16:32:31.641Z,10.80
2023-04-17T16:34:58.517Z,9.48
2023-04-17T16:37:25.472Z,8.65
2023-04-17T16:39:52.289Z,7.07
2023-04-17T16:42:19.055Z,9.85
2023-04-17T16:44:46.244Z,8.48
2023-04-17T16:47:14.472Z,8.73
2023-04-17T16:49:42.235Z,9.18
2023-04-17T16:52:09.108Z,7.70
2023-04-17T16:54:35.846Z,9.65
2023-04-17T16:57:02.701Z,10.27
2023-04-17T16:59:30.468Z,8.90
2023-04-17T17:01:57.945Z,7.82
2023-04-17T17:04:25.687Z,8.88
2023-04-17T17:06:52.488Z,10.88
2023-04-17T17:09:20.497Z,10.68
2023-04-17T17:11:47.432Z,10.43
2023-04-17T17:14:16.130Z,9.20
2023-04-17T17:16:43.058Z,9.73
2023-04-17T17:19:16.739Z,10.82
2023-04-17T17:21:43.448Z,8.93
2023-04-17T17:24:11.360Z,9.83
2023-04-17T17:26:38.261Z,10.52
2023-04-17T17:29:05.233Z,9.65
2023-04-17T17:31:33.897Z,9.15
2023-04-17T17:34:11.846Z,7.07
2023-04-17T17:36:51.267Z,9.63
2023-04-17T17:39:18.117Z,13.23
2023-04-17T17:41:47.604Z,10.33
2023-04-17T17:44:14.887Z,9.23
2023-04-17T17:46:42.204Z,11.20
2023-04-17T17:49:08.917Z,8.55
2023-04-17T17:51:35.697Z,11.73
2023-04-17T17:54:02.423Z,12.25
2023-04-17T17:56:29.229Z,7.35
2023-04-17T17:58:56.045Z,8.98
2023-04-17T18:01:24.797Z,9.27
2023-04-17T18:03:52.900Z,8.50
2023-04-17T18:06:20.339Z,9.30
2023-04-17T18:08:47.137Z,8.73
2023-04-17T18:11:13.868Z,9.40
2023-04-17T18:13:40.630Z,9.90
2023-04-17T18:16:08.105Z,9.70
2023-04-17T18:18:34.921Z,11.10
2023-04-17T18:21:09.497Z,11.20
2023-04-17T18:23:36.358Z,10.10
2023-04-17T18:26:03.695Z,10.35
2023-04-17T18:28:30.725Z,8.67
2023-04-17T18:30:57.602Z,7.73
2023-04-17T18:33:24.785Z,10.32
2023-04-17T18:35:51.896Z,8.63
2023-04-17T18:38:18.636Z,10.87
2023-04-17T18:41:05.289Z,12.47
2023-04-17T18:43:34.356Z,9.07
2023-04-17T18:46:11.349Z,8.63
2023-04-17T18:48:38.362Z,9.27
2023-04-17T18:51:12.631Z,8.67
2023-04-17T18:53:39.385Z,9.57
2023-04-17T18:56:10.827Z,9.57
2023-04-17T18:58:40.313Z,15.03
2023-04-17T19:01:09.411Z,13.87
2023-04-17T19:03:38.296Z,9.55
2023-04-17T19:06:06.825Z,7.93
2023-04-17T19:08:34.038Z,7.57
2023-04-17T19:11:03.408Z,7.70
2023-04-17T19:13:30.349Z,6.63
2023-04-17T19:16:00.304Z,6.60
2023-04-17T19:18:30.402Z,8.80
2023-04-17T19:20:59.672Z,7.63
2023-04-17T19:23:26.686Z,5.70
2023-04-17T19:25:56.649Z,8.03
2023-04-17T19:28:29.609Z,8.70
2023-04-17T19:30:59.253Z,7.33
2023-04-17T19:33:26.262Z,8.90
2023-04-17T19:35:53.066Z,7.33
2023-04-17T19:38:21.466Z,8.17
2023-04-17T19:41:17.506Z,7.17
2023-04-17T19:43:49.879Z,8.80
2023-04-17T19:46:20.497Z,7.63
2023-04-17T19:48:53.196Z,10.00
2023-04-17T19:51:27.541Z,11.07
2023-04-17T19:53:56.355Z,11.13
2023-04-17T19:56:32.592Z,10.60
2023-04-17T19:59:04.814Z,8.93
2023-04-17T20:01:37.373Z,11.13
2023-04-17T20:04:07.253Z,9.83
2023-04-17T20:06:35.337Z,7.67
2023-04-17T20:09:03.464Z,10.70
2023-04-17T20:11:51.970Z,9.20
2023-04-17T20:14:21.986Z,10.93
2023-04-17T20:16:52.252Z,9.30
2023-04-17T20:19:25.200Z,9.07
2023-04-17T20:21:51.897Z,10.20
2023-04-17T20:24:24.557Z,9.87
2023-04-17T20:26:53.523Z,9.67
2023-04-17T20:29:21.997Z,13.20
2023-04-17T20:31:50.253Z,10.70
2023-04-17T20:34:18.889Z,12.97
2023-04-17T20:36:45.931Z,11.97
2023-04-17T20:39:14.585Z,11.23
2023-04-17T20:41:43.810Z,11.63
2023-04-17T20:44:10.675Z,12.17
2023-04-17T20:46:39.678Z,13.43
2023-04-17T20:49:07.642Z,12.17
2023-04-17T20:51:34.481Z,11.63
2023-04-17T20:54:01.395Z,10.13
2023-04-17T20:56:29.618Z,11.13
2023-04-17T20:58:56.340Z,9.53
2023-04-17T21:01:23.226Z,10.43
2023-04-17T21:03:51.412Z,11.23
2023-04-17T21:06:18.249Z,11.87
2023-04-17T21:08:51.028Z,11.17
2023-04-17T21:11:18.993Z,9.13
2023-04-17T21:13:47.286Z,11.60
2023-04-17T21:16:16.308Z,14.03
2023-04-17T21:18:50.320Z,10.53
2023-04-17T21:21:17.368Z,13.20
2023-04-17T21:23:45.321Z,12.93
2023-04-17T21:26:22.434Z,14.13
2023-04-17T21:28:55.369Z,16.17
2023-04-17T21:31:31.280Z,11.53
2023-04-17T21:34:00.599Z,13.80
2023-04-17T21:36:28.546Z,11.43
2023-04-17T21:38:55.469Z,11.37
2023-04-17T21:41:32.353Z,12.53
2023-04-17T21:44:06.252Z,12.70
2023-04-17T21:46:33.074Z,12.97
2023-04-17T21:49:06.945Z,10.40
2023-04-17T21:51:33.699Z,13.60
2023-04-17T21:54:01.707Z,14.87
2023-04-17T21:56:28.628Z,17.63
2023-04-17T21:58:55.790Z,16.53
2023-04-17T22:01:23.630Z,13.23
2023-04-17T22:03:50.706Z,14.37
2023-04-17T22:06:17.535Z,12.73
2023-04-17T22:08:44.632Z,15.30
2023-04-17T22:11:12.615Z,15.03
2023-04-17T22:13:41.437Z,13.90
2023-04-17T22:16:15.207Z,17.87
2023-04-17T22:18:42.315Z,14.00
2023-04-17T22:22:05.465Z,14.40
2023-04-17T22:25:28.726Z,15.67
2023-04-17T22:28:51.950Z,15.13
2023-04-17T22:32:15.600Z,16.80
2023-04-17T22:35:38.676Z,14.77
2023-04-17T22:39:02.024Z,16.83
2023-04-17T22:42:26.340Z,14.27
2023-04-17T22:45:51.583Z,18.00
2023-04-17T22:49:15.230Z,13.87
2023-04-17T22:52:38.281Z,15.80
2023-04-17T22:56:02.583Z,16.43
2023-04-17T22:59:25.600Z,17.17
2023-04-17T23:02:51.305Z,17.43
2023-04-17T23:06:15.768Z,17.37
2023-04-17T23:09:21.156Z,18.63
2023-04-17T23:11:54.825Z,15.63
2023-04-17T23:14:28.460Z,17.33
2023-04-17T23:16:56.500Z,17.13
2023-04-17T23:19:25.431Z,17.73
2023-04-17T23:21:52.243Z,17.27
2023-04-17T23:24:21.196Z,18.10
2023-04-17T23:26:50.166Z,17.00
2023-04-17T23:29:19.187Z,23.60
2023-04-17T23:31:46.079Z,21.53
2023-04-17T23:34:13.172Z,20.63
2023-04-17T23:36:41.227Z,20.53
2023-04-17T23:39:08.213Z,21.60
2023-04-17T23:41:35.448Z,19.87
2023-04-17T23:44:04.363Z,22.83
2023-04-17T23:46:33.225Z,24.27
2023-04-17T23:49:00.139Z,20.03
2023-04-17T23:51:32.730Z,20.07
2023-04-17T23:54:05.548Z,20.13
2023-04-17T23:56:32.741Z,23.67
2023-04-17T23:59:00.797Z,23.03
